Time;durP1;ratioP1;P1;durP2;ratioP2;P2;SDS_P1;SDS_P2;PMS_P1;PMS_P2;Temp;Humidity;BMP_temperature;BMP_pressure;BME280_temperature;BME280_humidity;BME280_pressure;Samples;Min_cycle;Max_cycle;Signal;HPM_P1;HPM_P2
2022/08/17 02:47:43;;;;;;;4.05;1.70;;;19.10;80.40;;;;;;5138436;23;88235;-71
2022/08/17 02:50:12;;;;;;;3.22;1.67;;;19.10;81.10;;;;;;4810797;29;87027;-72
2022/08/17 02:52:39;;;;;;;3.10;1.60;;;19.10;81.20;;;;;;4806645;29;86572;-71
2022/08/17 02:55:08;;;;;;;5.75;1.58;;;18.90;82.40;;;;;;4792477;29;88721;-71
2022/08/17 02:57:35;;;;;;;5.38;1.92;;;18.70;84.20;;;;;;4806147;29;87167;-71
2022/08/17 03:00:08;;;;;;;3.58;1.85;;;18.60;84.20;;;;;;4816262;29;87014;-71
2022/08/17 03:02:44;;;;;;;6.43;2.03;;;18.60;84.00;;;;;;4823201;29;86952;-71
2022/08/17 03:05:13;;;;;;;5.63;2.08;;;18.60;85.70;;;;;;4797202;29;87266;-71
2022/08/17 03:07:39;;;;;;;7.07;1.88;;;18.50;85.30;;;;;;4807402;29;86833;-71
2022/08/17 03:10:06;;;;;;;3.65;1.80;;;18.60;84.60;;;;;;4815841;29;86990;-71
2022/08/17 03:12:35;;;;;;;3.78;1.90;;;18.50;85.70;;;;;;4818217;29;85591;-69
2022/08/17 03:15:29;;;;;;;4.38;1.83;;;18.50;85.70;;;;;;4798124;29;86720;-70
2022/08/17 03:17:55;;;;;;;4.80;1.70;;;18.50;85.30;;;;;;4810935;29;86708;-70
2022/08/17 03:20:21;;;;;;;4.63;1.90;;;18.40;85.40;;;;;;4816097;29;87839;-70
2022/08/17 03:22:50;;;;;;;3.50;1.73;;;18.50;86.20;;;;;;4803272;29;87074;-70
2022/08/17 03:25:37;;;;;;;4.50;2.00;;;18.30;87.10;;;;;;4801916;29;87283;-70
2022/08/17 03:28:04;;;;;;;5.00;1.90;;;18.20;87.30;;;;;;4812721;29;86957;-71
2022/08/17 03:30:31;;;;;;;3.97;1.77;;;18.30;87.60;;;;;;4795806;29;86988;-70
2022/08/17 03:33:00;;;;;;;3.95;1.92;;;18.30;88.00;;;;;;4806555;29;86824;-71
2022/08/17 03:35:29;;;;;;;3.78;1.73;;;18.20;88.10;;;;;;4813760;29;87127;-70
2022/08/17 03:37:55;;;;;;;4.20;1.90;;;18.20;88.40;;;;;;4814288;29;87412;-71
2022/08/17 03:40:21;;;;;;;4.47;1.92;;;18.20;88.50;;;;;;4795853;29;86633;-70
2022/08/17 03:42:47;;;;;;;4.88;2.00;;;18.10;88.70;;;;;;4820432;29;86917;-71
2022/08/17 03:56:40;;;;;;;4.30;2.20;;;18.20;88.60;;;;;;4815254;29;88836;-71
2022/08/17 03:59:00;;;;;;;5.78;1.92;;;18.10;90.60;;;;;;4801964;29;86786;-70
2022/08/17 04:01:26;;;;;;;3.50;1.80;;;18.10;90.70;;;;;;4805771;29;86293;-70
2022/08/17 04:03:52;;;;;;;10.68;2.00;;;18.10;90.70;;;;;;4790051;29;86169;-70
2022/08/17 04:06:18;;;;;;;3.78;1.80;;;18.10;90.60;;;;;;4799252;29;87909;-70
2022/08/17 04:08:43;;;;;;;6.07;2.00;;;18.20;90.20;;;;;;4803389;29;87115;-69
2022/08/17 04:11:09;;;;;;;3.92;1.90;;;18.20;90.50;;;;;;4786463;29;88142;-70
2022/08/17 04:13:35;;;;;;;4.82;2.13;;;18.20;91.00;;;;;;4803755;29;86493;-70
2022/08/17 04:16:01;;;;;;;5.20;2.38;;;18.10;91.00;;;;;;4804358;29;87760;-70
2022/08/17 04:18:26;;;;;;;4.60;1.85;;;18.10;91.50;;;;;;4787386;29;89057;-69
2022/08/17 04:20:52;;;;;;;3.47;1.92;;;18.20;91.00;;;;;;4805163;29;86731;-71
2022/08/17 04:23:18;;;;;;;6.28;2.90;;;18.30;90.50;;;;;;4803531;29;86540;-71
2022/08/17 04:25:48;;;;;;;4.82;2.30;;;18.40;90.70;;;;;;4802990;29;86534;-71
2022/08/17 04:28:15;;;;;;;5.15;1.90;;;18.40;90.90;;;;;;4805273;29;86731;-71
2022/08/17 04:30:43;;;;;;;4.40;2.30;;;18.40;90.70;;;;;;4804735;29;86867;-71
2022/08/17 04:33:16;;;;;;;6.13;2.47;;;18.50;91.00;;;;;;4801468;29;88578;-69
2022/08/17 04:35:48;;;;;;;5.05;2.45;;;18.50;91.10;;;;;;4802836;29;87573;-70
2022/08/17 04:38:21;;;;;;;5.53;2.38;;;18.70;91.60;;;;;;4803377;29;87251;-70
2022/08/17 04:43:33;;;;;;;5.50;2.70;;;18.80;91.60;;;;;;4803846;29;86634;-70
2022/08/17 04:46:11;;;;;;;5.40;2.55;;;18.90;91.80;;;;;;4801998;29;87693;-70
2022/08/17 04:48:49;;;;;;;8.02;3.28;;;19.00;91.80;;;;;;4803525;29;86712;-70
2022/08/17 04:51:35;;;;;;;5.90;3.00;;;19.40;91.70;;;;;;4804656;29;87156;-70
2022/08/17 04:54:12;;;;;;;6.85;2.83;;;19.80;91.20;;;;;;4801558;29;86148;-70
2022/08/17 04:56:39;;;;;;;4.63;2.22;;;20.10;90.50;;;;;;4802831;29;86814;-70
2022/08/17 04:59:15;;;;;;;6.25;2.42;;;20.50;90.00;;;;;;4803713;29;86835;-70
2022/08/17 05:01:44;;;;;;;5.00;2.72;;;21.00;87.80;;;;;;4804033;29;87600;-70
2022/08/17 05:04:15;;;;;;;7.35;2.72;;;21.40;87.10;;;;;;4803400;29;87714;-70
2022/08/17 05:06:41;;;;;;;9.48;2.92;;;21.60;84.70;;;;;;4803099;29;87021;-71
2022/08/17 05:09:07;;;;;;;5.95;2.38;;;21.50;85.80;;;;;;4801163;29;87290;-71
2022/08/17 05:11:34;;;;;;;7.00;2.85;;;22.10;84.10;;;;;;4803174;29;86656;-69
2022/08/17 05:13:59;;;;;;;5.72;2.75;;;22.80;81.10;;;;;;4806898;29;87060;-70
2022/08/17 05:16:27;;;;;;;5.07;2.03;;;23.30;77.90;;;;;;4793686;29;87236;-70
2022/08/17 05:18:53;;;;;;;12.70;2.42;;;23.70;78.50;;;;;;4802169;29;87375;-72
2022/08/17 05:21:20;;;;;;;5.60;2.35;;;24.50;74.90;;;;;;4805887;29;87088;-71
2022/08/17 05:23:47;;;;;;;10.45;2.33;;;25.10;72.70;;;;;;4801410;29;86857;-71
2022/08/17 05:26:17;;;;;;;4.05;2.45;;;25.50;69.70;;;;;;4807504;29;89377;-72
2022/08/17 05:28:43;;;;;;;5.45;1.88;;;25.50;69.80;;;;;;4806489;29;90975;-70
2022/08/17 05:31:09;;;;;;;5.32;2.67;;;26.00;68.70;;;;;;4802727;29;86719;-72
2022/08/17 05:33:38;;;;;;;3.30;2.15;;;26.70;67.10;;;;;;4801689;29;86500;-71
2022/08/17 05:36:06;;;;;;;6.22;1.92;;;27.30;65.80;;;;;;4802844;29;87749;-70
2022/08/17 05:38:33;;;;;;;3.35;2.05;;;27.70;64.50;;;;;;4797371;29;88006;-71
2022/08/17 05:41:01;;;;;;;10.45;2.47;;;28.40;61.60;;;;;;4803627;29;86612;-70
2022/08/17 05:43:30;;;;;;;11.45;2.70;;;28.70;60.40;;;;;;4808012;29;85980;-70
2022/08/17 05:46:00;;;;;;;7.70;3.25;;;29.20;59.50;;;;;;4800235;29;87236;-70
2022/08/17 05:48:26;;;;;;;4.75;2.40;;;29.20;57.20;;;;;;4796632;29;86998;-70
2022/08/17 05:51:22;;;;;;;6.30;2.72;;;28.60;59.40;;;;;;4796173;29;87304;-70
2022/08/17 05:54:11;;;;;;;6.25;2.55;;;28.00;60.10;;;;;;4804480;29;88241;-70
2022/08/17 05:56:45;;;;;;;5.38;2.00;;;28.20;59.60;;;;;;4793596;29;90716;-70
2022/08/17 05:59:20;;;;;;;3.40;2.30;;;27.90;61.90;;;;;;4797144;29;87473;-70
2022/08/17 06:02:10;;;;;;;7.18;2.85;;;28.00;60.60;;;;;;4801531;29;86313;-70
2022/08/17 06:05:11;;;;;;;5.65;2.53;;;27.30;61.00;;;;;;4798621;29;86980;-70
2022/08/17 06:07:39;;;;;;;3.88;2.30;;;27.20;61.80;;;;;;4782916;29;87093;-70
2022/08/17 06:10:13;;;;;;;6.45;2.80;;;27.30;62.80;;;;;;4794499;29;88214;-70
2022/08/17 06:12:44;;;;;;;6.25;2.53;;;27.40;61.20;;;;;;4799180;29;87797;-70
2022/08/17 06:15:29;;;;;;;4.60;2.63;;;25.60;65.20;;;;;;4799797;29;86715;-70
2022/08/17 06:18:04;;;;;;;7.30;2.92;;;24.40;68.80;;;;;;4801958;29;88169;-76
2022/08/17 06:20:55;;;;;;;4.13;2.20;;;23.90;70.70;;;;;;4797371;29;88068;-74
2022/08/17 06:23:29;;;;;;;5.93;2.75;;;24.10;70.40;;;;;;4797857;29;87011;-74
2022/08/17 06:26:02;;;;;;;5.43;2.72;;;23.90;72.10;;;;;;4792947;29;87137;-74
2022/08/17 06:28:46;;;;;;;5.25;2.97;;;23.40;74.50;;;;;;4800943;29;87824;-74
2022/08/17 06:31:22;;;;;;;6.30;2.13;;;23.20;75.00;;;;;;4800204;29;88224;-74
2022/08/17 06:33:49;;;;;;;3.85;2.22;;;23.80;74.30;;;;;;4797331;29;88051;-74
2022/08/17 06:36:32;;;;;;;4.70;2.10;;;24.90;72.70;;;;;;4801317;29;85577;-75
2022/08/17 06:38:58;;;;;;;4.00;1.88;;;26.90;69.00;;;;;;4801839;29;86849;-74
2022/08/17 06:41:36;;;;;;;5.13;2.33;;;29.50;62.00;;;;;;4801948;29;86793;-74
2022/08/17 06:44:33;;;;;;;4.32;2.30;;;32.30;55.10;;;;;;4790961;29;87887;-74
2022/08/17 06:47:23;;;;;;;5.20;2.17;;;33.20;49.70;;;;;;4804763;29;86789;-74
2022/08/17 06:50:14;;;;;;;3.78;2.55;;;31.90;52.30;;;;;;4797890;29;87252;-74
2022/08/17 06:52:48;;;;;;;6.28;2.78;;;29.90;53.90;;;;;;4789679;29;86684;-74
2022/08/17 06:55:22;;;;;;;4.65;2.65;;;28.10;57.80;;;;;;4803724;29;88083;-74
2022/08/17 06:57:56;;;;;;;5.68;2.75;;;26.50;61.20;;;;;;4805761;29;86772;-74
2022/08/17 07:00:26;;;;;;;4.38;2.40;;;26.20;62.50;;;;;;4798410;29;87271;-74
2022/08/17 07:03:25;;;;;;;6.00;2.30;;;25.50;64.90;;;;;;4800797;29;86970;-74
2022/08/17 07:05:59;;;;;;;6.38;3.22;;;24.80;67.50;;;;;;4801109;29;86782;-74
2022/08/17 07:08:32;;;;;;;6.60;3.20;;;24.40;68.00;;;;;;4802436;29;86917;-74
2022/08/17 07:11:07;;;;;;;4.00;2.30;;;24.30;68.90;;;;;;4799815;29;88492;-73
2022/08/17 07:14:00;;;;;;;3.47;1.92;;;24.80;69.30;;;;;;4800542;29;88263;-74
2022/08/17 07:16:45;;;;;;;5.88;2.50;;;28.50;65.20;;;;;;4801983;29;86921;-74
2022/08/17 07:19:14;;;;;;;7.88;3.47;;;33.10;54.50;;;;;;4805168;29;87024;-74
2022/08/17 07:21:49;;;;;;;3.85;2.30;;;36.00;47.60;;;;;;4805793;29;87303;-74
2022/08/17 07:24:29;;;;;;;4.35;2.58;;;36.50;45.90;;;;;;4804019;29;86446;-74
2022/08/17 07:27:03;;;;;;;3.83;2.58;;;36.50;45.40;;;;;;4803976;29;86845;-73
2022/08/17 07:29:33;;;;;;;4.72;2.90;;;36.90;45.90;;;;;;4806232;29;86193;-73
2022/08/17 07:31:58;;;;;;;3.72;2.65;;;37.10;43.80;;;;;;4800184;29;87473;-74
2022/08/17 07:34:24;;;;;;;3.00;1.95;;;34.40;47.30;;;;;;4805870;29;86507;-73
2022/08/17 07:37:04;;;;;;;3.97;2.85;;;35.90;45.50;;;;;;4801634;29;87809;-74
2022/08/17 07:39:30;;;;;;;4.07;2.95;;;38.40;41.70;;;;;;4803978;29;88508;-73
2022/08/17 07:42:03;;;;;;;5.97;2.20;;;38.90;41.20;;;;;;4801081;29;87599;-74
2022/08/17 07:44:29;;;;;;;5.88;3.00;;;38.90;41.10;;;;;;4803391;29;87296;-73
2022/08/17 07:49:45;;;;;;;13.38;4.30;;;40.40;37.80;;;;;;4803436;29;86580;-74
2022/08/17 07:52:29;;;;;;;4.82;2.88;;;40.70;38.00;;;;;;4798091;29;86776;-73
2022/08/17 07:54:55;;;;;;;5.00;2.70;;;39.80;36.50;;;;;;4801896;29;86969;-73
2022/08/17 07:57:34;;;;;;;4.57;2.17;;;37.30;39.80;;;;;;4804545;29;87087;-73
2022/08/17 08:00:00;;;;;;;7.05;2.92;;;35.80;41.80;;;;;;4801688;29;86792;-73
2022/08/17 08:02:29;;;;;;;4.45;3.28;;;34.70;42.70;;;;;;4803532;29;88168;-74
2022/08/17 08:05:00;;;;;;;5.25;2.33;;;33.10;46.20;;;;;;4801267;29;87984;-73
2022/08/17 08:07:34;;;;;;;4.60;2.40;;;30.80;50.70;;;;;;4805724;29;88049;-73
2022/08/17 08:10:06;;;;;;;5.72;2.67;;;31.00;50.60;;;;;;4799592;29;87403;-73
2022/08/17 08:12:41;;;;;;;5.63;2.15;;;30.90;51.80;;;;;;4805081;29;87024;-73
2022/08/17 08:15:14;;;;;;;6.93;2.55;;;32.20;50.00;;;;;;4805117;29;86716;-73
2022/08/17 08:17:58;;;;;;;5.72;2.95;;;36.00;43.80;;;;;;4801267;29;86904;-73
2022/08/17 08:20:40;;;;;;;4.30;2.45;;;37.90;42.00;;;;;;4803043;29;86368;-74
2022/08/17 08:23:27;;;;;;;5.63;2.25;;;40.00;37.20;;;;;;4798899;29;87129;-74
2022/08/17 08:26:20;;;;;;;4.63;2.63;;;41.20;36.90;;;;;;4805196;29;86827;-73
2022/08/17 08:29:04;;;;;;;4.75;3.28;;;42.10;35.60;;;;;;4803636;29;87538;-73
2022/08/17 08:32:04;;;;;;;3.70;2.42;;;40.10;36.30;;;;;;4798962;29;87169;-73
2022/08/17 08:34:44;;;;;;;5.07;2.67;;;36.80;39.70;;;;;;4801961;29;87338;-73
2022/08/17 08:37:24;;;;;;;5.75;2.80;;;34.60;42.70;;;;;;4804161;29;86717;-73
2022/08/17 08:39:56;;;;;;;5.70;3.15;;;33.60;45.60;;;;;;4801702;29;86803;-73
2022/08/17 08:42:43;;;;;;;4.30;2.65;;;32.70;46.40;;;;;;4801624;29;86787;-73
2022/08/17 08:45:12;;;;;;;5.90;2.53;;;32.50;49.20;;;;;;4802194;29;87835;-73
2022/08/17 08:47:56;;;;;;;7.90;2.22;;;32.10;48.90;;;;;;4804475;29;88375;-74
2022/08/17 08:50:25;;;;;;;5.55;2.65;;;32.00;47.40;;;;;;4803356;29;88261;-73
2022/08/17 08:52:50;;;;;;;4.25;2.35;;;31.60;47.40;;;;;;4802417;29;86952;-73
2022/08/17 08:55:50;;;;;;;5.53;2.72;;;30.90;48.90;;;;;;4803824;29;88347;-73
2022/08/17 08:58:28;;;;;;;3.75;2.42;;;30.40;49.40;;;;;;4804062;29;87349;-73
2022/08/17 09:00:57;;;;;;;4.22;2.28;;;30.20;52.30;;;;;;4803513;29;86375;-73
2022/08/17 09:03:42;;;;;;;6.07;2.55;;;30.80;51.50;;;;;;4805067;29;86692;-74
2022/08/17 09:06:46;;;;;;;5.38;2.75;;;32.20;50.20;;;;;;4804054;29;87313;-73
2022/08/17 09:09:32;;;;;;;4.68;2.33;;;32.90;46.90;;;;;;4803488;29;87009;-73
2022/08/17 09:12:08;;;;;;;4.32;2.78;;;33.00;46.80;;;;;;4801476;29;87072;-74
2022/08/17 09:14:44;;;;;;;4.32;2.95;;;32.40;46.50;;;;;;4804619;29;86498;-74
2022/08/17 09:17:26;;;;;;;4.70;2.63;;;32.10;47.30;;;;;;4798838;29;87338;-73
2022/08/17 09:19:55;;;;;;;4.45;2.88;;;32.30;47.30;;;;;;4801336;29;86318;-74
2022/08/17 09:22:36;;;;;;;;;;;36.10;44.30;;;;;;4803717;29;88078;-73
2022/08/17 09:25:22;;;;;;;6.22;2.92;;;40.70;39.40;;;;;;4804943;29;86769;-74
2022/08/17 09:28:18;;;;;;;5.55;3.40;;;43.40;36.80;;;;;;4801905;29;87292;-74
2022/08/17 09:30:49;;;;;;;4.53;3.08;;;45.60;33.50;;;;;;4794652;29;86730;-74
2022/08/17 09:33:21;;;;;;;4.40;3.42;;;46.30;31.50;;;;;;4803882;29;87257;-72
2022/08/17 09:36:13;;;;;;;6.20;3.90;;;47.00;32.90;;;;;;4802754;29;86556;-72
2022/08/17 09:39:04;;;;;;;5.40;4.32;;;48.00;32.10;;;;;;4801848;29;87518;-72
2022/08/17 09:41:54;;;;;;;5.68;5.00;;;48.20;31.10;;;;;;4798353;29;87194;-72
2022/08/17 09:44:45;;;;;;;6.90;5.80;;;48.50;30.80;;;;;;4803591;29;86515;-72
2022/08/17 09:47:11;;;;;;;4.70;4.20;;;49.20;30.30;;;;;;4796043;29;86918;-72
2022/08/17 09:49:49;;;;;;;6.70;5.50;;;48.20;30.50;;;;;;4803998;29;87880;-72
2022/08/17 09:52:28;;;;;;;4.85;4.45;;;47.90;30.20;;;;;;4789855;29;87891;-72
2022/08/17 09:54:56;;;;;;;5.45;3.85;;;48.20;30.10;;;;;;4798796;29;86905;-72
2022/08/17 09:57:22;;;;;;;5.75;5.15;;;48.00;29.70;;;;;;4802480;29;86649;-72
2022/08/17 10:00:17;;;;;;;5.38;4.43;;;48.40;30.00;;;;;;4802426;29;86806;-72
2022/08/17 10:02:52;;;;;;;8.15;5.55;;;47.80;30.00;;;;;;4796816;29;87056;-72
2022/08/17 10:05:45;;;;;;;4.78;4.38;;;47.30;29.50;;;;;;4797151;29;87350;-74
2022/08/17 10:08:26;;;;;;;6.07;5.55;;;47.00;30.50;;;;;;4795191;29;85657;-73
2022/08/17 10:11:04;;;;;;;5.43;4.90;;;47.30;30.30;;;;;;4798190;29;87063;-72
2022/08/17 10:13:51;;;;;;;6.55;5.57;;;45.90;31.80;;;;;;4797067;29;86637;-75
2022/08/17 10:17:06;;;;;;;5.80;5.25;;;46.40;30.00;;;;;;4797491;29;87921;-73
2022/08/17 10:19:41;;;;;;;7.22;6.68;;;45.40;30.80;;;;;;4786271;29;87895;-72
2022/08/17 10:27:53;;;;;;;6.38;3.25;;;39.30;34.30;;;;;;4802953;29;86539;-75
2022/08/17 10:30:22;;;;;;;3.85;3.45;;;37.20;36.60;;;;;;4802307;29;87026;-75
2022/08/17 10:32:58;;;;;;;5.13;3.65;;;36.40;38.40;;;;;;4805629;29;86675;-75
2022/08/17 10:35:33;;;;;;;3.47;3.05;;;34.50;40.20;;;;;;4802547;29;87487;-75
2022/08/17 10:38:47;;;;;;;3.75;3.10;;;33.40;41.10;;;;;;4804087;29;86999;-75
2022/08/17 10:41:23;;;;;;;3.65;2.35;;;32.80;43.50;;;;;;4790044;29;86572;-74
2022/08/17 10:44:08;;;;;;;4.60;2.78;;;32.60;45.00;;;;;;4803350;29;88305;-75
2022/08/17 10:47:04;;;;;;;4.22;2.92;;;32.30;45.60;;;;;;4799498;29;87216;-75
2022/08/17 10:49:46;;;;;;;3.85;2.53;;;32.30;44.60;;;;;;4814693;29;86824;-74
2022/08/17 10:52:29;;;;;;;7.50;2.55;;;32.30;46.50;;;;;;4802456;29;86635;-74
2022/08/17 10:54:57;;;;;;;4.63;2.80;;;31.40;45.30;;;;;;4805015;29;87807;-74
2022/08/17 10:57:26;;;;;;;4.38;2.28;;;31.00;46.20;;;;;;4803454;29;87881;-75
2022/08/17 10:59:57;;;;;;;6.75;2.63;;;31.00;47.40;;;;;;4801144;29;86751;-74
2022/08/17 11:02:30;;;;;;;4.88;2.75;;;30.80;47.50;;;;;;4807084;29;86006;-74
2022/08/17 11:05:18;;;;;;;6.03;2.28;;;30.60;48.90;;;;;;4805697;29;86707;-74
2022/08/17 11:08:09;;;;;;;4.18;2.47;;;31.00;46.90;;;;;;4800667;29;88069;-74
2022/08/17 11:10:35;;;;;;;4.72;2.58;;;31.00;48.00;;;;;;4799495;29;88034;-74
2022/08/17 11:13:36;;;;;;;7.25;2.72;;;31.00;47.40;;;;;;4805035;29;86817;-74
2022/08/17 11:16:39;;;;;;;5.97;2.15;;;30.80;47.10;;;;;;4803863;29;87677;-74
2022/08/17 11:19:50;;;;;;;4.80;2.58;;;30.10;49.30;;;;;;4803601;29;87013;-75
2022/08/17 11:22:15;;;;;;;4.53;2.10;;;30.00;51.10;;;;;;4787332;29;87144;-74
2022/08/17 11:24:46;;;;;;;3.72;2.42;;;30.10;50.90;;;;;;4804451;29;86998;-75
2022/08/17 11:27:33;;;;;;;4.80;2.35;;;30.10;51.10;;;;;;4801092;29;87335;-74
2022/08/17 11:30:06;;;;;;;5.25;2.72;;;30.30;49.60;;;;;;4801194;29;86931;-74
2022/08/17 11:32:37;;;;;;;5.00;2.42;;;30.50;49.30;;;;;;4799332;29;86330;-75
2022/08/17 11:35:11;;;;;;;3.90;2.75;;;30.00;50.00;;;;;;4806049;29;87429;-74
2022/08/17 11:38:09;;;;;;;6.00;3.05;;;30.10;51.70;;;;;;4799330;29;88258;-74
2022/08/17 11:40:50;;;;;;;9.10;2.83;;;29.80;52.20;;;;;;4804378;29;87899;-74
2022/08/17 11:43:44;;;;;;;4.32;2.40;;;30.10;52.00;;;;;;4805332;29;86694;-75
2022/08/17 11:53:36;;;;;;;7.10;3.83;;;30.80;50.30;;;;;;4777800;29;86338;-75
2022/08/17 11:56:08;;;;;;;;;;;31.10;50.20;;;;;;4805244;29;86440;-74
2022/08/17 11:58:40;;;;;;;5.53;2.33;;;31.10;50.90;;;;;;4804515;29;86321;-74
2022/08/17 12:01:12;;;;;;;5.80;2.60;;;31.10;50.30;;;;;;4804878;29;86736;-74
2022/08/17 12:03:37;;;;;;;6.22;3.22;;;31.40;50.60;;;;;;4801734;29;86770;-74
2022/08/17 12:06:16;;;;;;;5.72;2.85;;;31.10;49.80;;;;;;4804737;29;87934;-73
2022/08/17 12:08:50;;;;;;;6.18;2.22;;;30.80;50.90;;;;;;4802579;29;86846;-74
2022/08/17 12:11:22;;;;;;;7.05;3.70;;;30.40;51.10;;;;;;4804681;29;87195;-74
2022/08/17 12:13:52;;;;;;;5.28;3.00;;;30.40;51.40;;;;;;4804915;29;86410;-73
2022/08/17 12:16:19;;;;;;;10.05;3.25;;;30.30;52.60;;;;;;4796053;29;87318;-74
2022/08/17 12:18:57;;;;;;;8.50;3.17;;;30.60;51.60;;;;;;4803100;29;86666;-74
2022/08/17 12:21:45;;;;;;;4.63;2.78;;;30.80;51.40;;;;;;4804314;29;87268;-74
2022/08/17 12:24:28;;;;;;;3.40;2.35;;;30.70;50.80;;;;;;4805217;29;87181;-73
2022/08/17 12:27:01;;;;;;;8.32;3.03;;;30.60;51.40;;;;;;4804237;29;86404;-73
2022/08/17 12:29:28;;;;;;;4.03;2.35;;;30.20;50.80;;;;;;4804136;29;87561;-73
2022/08/17 12:31:54;;;;;;;4.40;2.08;;;30.10;52.10;;;;;;4802212;29;88266;-73
2022/08/17 12:34:27;;;;;;;3.78;2.30;;;30.30;49.20;;;;;;4805518;29;88024;-73
2022/08/17 12:37:00;;;;;;;3.63;2.75;;;30.20;50.30;;;;;;4804575;29;86530;-73
2022/08/17 12:39:28;;;;;;;6.18;2.67;;;30.30;49.80;;;;;;4802167;29;87442;-73
2022/08/17 12:41:56;;;;;;;4.63;2.30;;;30.20;51.70;;;;;;4803938;29;87666;-73
2022/08/17 12:44:22;;;;;;;5.30;2.85;;;30.00;51.60;;;;;;4805702;29;86835;-73
2022/08/17 12:47:09;;;;;;;3.28;1.95;;;30.00;52.00;;;;;;4804430;29;86529;-73
2022/08/17 12:49:41;;;;;;;3.72;2.35;;;30.00;49.40;;;;;;4793707;29;85892;-74
2022/08/17 12:52:25;;;;;;;3.33;2.28;;;30.10;51.20;;;;;;4805389;29;87387;-73
2022/08/17 12:54:56;;;;;;;3.85;1.73;;;30.20;49.10;;;;;;4796701;29;87397;-73
2022/08/17 12:57:26;;;;;;;5.03;2.47;;;30.50;48.70;;;;;;4804355;29;87668;-73
2022/08/17 12:59:57;;;;;;;4.82;2.28;;;30.80;48.90;;;;;;4797259;29;86959;-73
2022/08/17 13:02:39;;;;;;;3.85;2.03;;;30.70;49.80;;;;;;4804034;29;86745;-74
2022/08/17 13:05:07;;;;;;;4.35;1.75;;;30.50;49.60;;;;;;4804387;29;87337;-73
2022/08/17 13:07:41;;;;;;;3.88;2.13;;;30.70;49.20;;;;;;4804432;29;86194;-74
2022/08/17 13:10:12;;;;;;;6.72;2.00;;;30.50;47.70;;;;;;4799482;29;86419;-73
2022/08/17 13:12:38;;;;;;;2.72;2.10;;;30.40;48.20;;;;;;4801781;29;87478;-74
2022/08/17 13:15:04;;;;;;;3.38;2.00;;;30.40;45.20;;;;;;4804539;29;87103;-74
2022/08/17 13:17:34;;;;;;;4.88;2.42;;;30.40;47.10;;;;;;4803734;29;86393;-73
2022/08/17 13:20:02;;;;;;;5.85;2.50;;;30.20;48.80;;;;;;4802215;29;86795;-73
2022/08/17 13:22:31;;;;;;;3.67;1.75;;;30.20;48.60;;;;;;4803349;29;88079;-73
2022/08/17 13:25:04;;;;;;;3.22;2.15;;;30.10;47.10;;;;;;4804174;29;87193;-74
2022/08/17 13:27:31;;;;;;;6.30;1.80;;;30.10;49.00;;;;;;4802131;29;86351;-73
2022/08/17 13:30:00;;;;;;;5.88;2.13;;;30.00;47.30;;;;;;4802435;29;86531;-74
2022/08/17 13:32:29;;;;;;;8.85;2.35;;;29.80;50.70;;;;;;4804104;29;87385;-73
2022/08/17 13:35:01;;;;;;;4.28;2.25;;;29.80;50.80;;;;;;4803844;29;86360;-73
2022/08/17 13:37:31;;;;;;;4.47;1.60;;;29.80;49.10;;;;;;4804317;29;86585;-73
2022/08/17 13:40:03;;;;;;;4.07;1.90;;;29.90;47.90;;;;;;4801894;29;85628;-73
2022/08/17 13:42:32;;;;;;;2.53;1.52;;;29.70;46.00;;;;;;4803890;29;86827;-73
2022/08/17 13:45:00;;;;;;;3.15;1.27;;;29.60;48.00;;;;;;4802912;29;86537;-73
2022/08/17 13:47:26;;;;;;;5.22;1.92;;;30.00;45.30;;;;;;4802597;29;87551;-74
2022/08/17 13:49:54;;;;;;;5.13;2.25;;;30.20;48.00;;;;;;4796024;29;86319;-73
2022/08/17 13:52:42;;;;;;;3.97;2.08;;;30.30;45.90;;;;;;4803326;29;87036;-73
2022/08/17 13:55:20;;;;;;;3.40;1.92;;;30.40;46.20;;;;;;4797526;29;87174;-73
2022/08/17 13:57:50;;;;;;;4.70;2.20;;;30.40;45.80;;;;;;4803700;29;87263;-73
2022/08/17 14:00:28;;;;;;;5.63;2.13;;;30.20;47.70;;;;;;4797587;29;86347;-74
2022/08/17 14:02:58;;;;;;;3.60;2.28;;;30.00;48.40;;;;;;4798406;29;86835;-73
2022/08/17 14:05:25;;;;;;;4.82;2.45;;;30.00;51.10;;;;;;4803564;29;86898;-74
2022/08/17 14:08:11;;;;;;;3.97;2.25;;;29.70;51.10;;;;;;4803071;29;86757;-73
2022/08/17 14:10:37;;;;;;;5.50;2.08;;;30.00;50.10;;;;;;4799773;29;86770;-74
2022/08/17 14:13:04;;;;;;;3.03;1.60;;;30.00;50.00;;;;;;4803379;29;88081;-73
2022/08/17 14:15:31;;;;;;;2.83;1.88;;;30.00;51.50;;;;;;4803463;29;87111;-73
2022/08/17 14:17:56;;;;;;;4.20;3.15;;;30.00;51.40;;;;;;4803890;29;86826;-73
2022/08/17 14:20:23;;;;;;;4.65;2.10;;;30.20;51.20;;;;;;4799352;29;86837;-74
2022/08/17 14:22:53;;;;;;;4.38;2.60;;;30.40;48.10;;;;;;4802128;29;87291;-73
2022/08/17 14:25:28;;;;;;;4.82;2.22;;;30.10;49.60;;;;;;4803437;29;87123;-74
2022/08/17 14:27:54;;;;;;;3.70;1.85;;;30.10;48.70;;;;;;4804125;29;86396;-74
2022/08/17 14:30:25;;;;;;;4.78;2.33;;;30.20;49.50;;;;;;4802214;29;85976;-74
2022/08/17 14:32:52;;;;;;;11.35;2.65;;;30.40;49.40;;;;;;4800574;29;87218;-73
2022/08/17 14:35:21;;;;;;;4.53;2.55;;;30.40;49.40;;;;;;4799602;29;88118;-73
2022/08/17 14:37:47;;;;;;;5.70;2.50;;;30.30;48.10;;;;;;4801491;29;87929;-74
2022/08/17 14:40:15;;;;;;;4.53;2.03;;;30.40;47.20;;;;;;4805018;29;86783;-73
2022/08/17 14:42:42;;;;;;;10.10;2.60;;;30.50;49.30;;;;;;4801853;29;86511;-74
2022/08/17 14:45:10;;;;;;;3.50;2.50;;;30.80;47.90;;;;;;4800653;29;86877;-72
2022/08/17 14:47:37;;;;;;;3.72;2.05;;;31.10;49.20;;;;;;4800621;29;89921;-74
2022/08/17 14:50:05;;;;;;;7.80;1.90;;;31.20;48.70;;;;;;4801027;29;86713;-74
2022/08/17 14:52:31;;;;;;;5.45;2.85;;;31.20;48.40;;;;;;4800197;29;89487;-73
2022/08/17 14:54:57;;;;;;;5.40;2.83;;;31.30;49.70;;;;;;4796723;29;85995;-74
2022/08/17 14:57:25;;;;;;;4.97;2.42;;;31.40;49.60;;;;;;4806402;29;87492;-74
2022/08/17 14:59:52;;;;;;;4.13;2.15;;;31.10;50.30;;;;;;4806769;29;86738;-73
2022/08/17 15:02:19;;;;;;;3.55;3.08;;;31.00;47.80;;;;;;4805690;29;89030;-73
2022/08/17 15:04:46;;;;;;;5.03;2.08;;;30.80;49.50;;;;;;4804009;29;88512;-74
2022/08/17 15:07:13;;;;;;;3.72;2.42;;;31.00;49.50;;;;;;4805088;29;86739;-73
2022/08/17 15:09:38;;;;;;;3.72;2.40;;;31.10;50.50;;;;;;4798931;29;86259;-73
2022/08/17 15:12:05;;;;;;;4.10;1.98;;;31.10;48.60;;;;;;4806018;29;87129;-74
2022/08/17 15:14:31;;;;;;;4.85;1.98;;;31.00;48.60;;;;;;4803903;29;87281;-75
2022/08/17 15:16:58;;;;;;;8.27;3.20;;;31.10;49.10;;;;;;4803800;29;87062;-73
2022/08/17 15:19:24;;;;;;;3.85;2.15;;;31.00;51.10;;;;;;4805020;29;86238;-73
2022/08/17 15:21:50;;;;;;;5.80;2.25;;;31.10;49.20;;;;;;4806343;29;86820;-73
2022/08/17 15:24:16;;;;;;;6.43;2.53;;;31.00;50.40;;;;;;4802415;29;86854;-73
2022/08/17 15:26:41;;;;;;;6.50;2.20;;;31.00;50.50;;;;;;4803829;29;87950;-74
2022/08/17 15:29:08;;;;;;;4.63;2.03;;;30.90;49.20;;;;;;4806923;29;86357;-74
2022/08/17 15:31:35;;;;;;;6.00;2.38;;;30.90;50.30;;;;;;4806931;29;86504;-73
2022/08/17 15:34:03;;;;;;;4.20;2.47;;;30.80;50.70;;;;;;4803180;29;87120;-74
2022/08/17 15:36:29;;;;;;;4.82;1.95;;;30.80;49.70;;;;;;4807297;29;86320;-73
2022/08/17 15:38:57;;;;;;;4.97;2.20;;;30.60;50.70;;;;;;4806481;29;86349;-73
2022/08/17 15:41:23;;;;;;;6.85;3.10;;;30.50;51.40;;;;;;4803916;29;87520;-73
2022/08/17 15:43:49;;;;;;;6.25;2.33;;;30.30;51.40;;;;;;4801463;29;86991;-74
2022/08/17 15:46:20;;;;;;;5.63;2.78;;;30.40;51.70;;;;;;4803992;29;87359;-73
2022/08/17 15:48:49;;;;;;;4.63;2.55;;;30.30;52.30;;;;;;4810495;29;87206;-74
2022/08/17 15:51:18;;;;;;;2.60;1.73;;;29.80;58.20;;;;;;4802213;29;88171;-74
2022/08/17 15:53:50;;;;;;;3.60;2.35;;;29.50;59.40;;;;;;4803581;29;87698;-73
2022/08/17 15:56:16;;;;;;;3.20;2.45;;;29.30;58.60;;;;;;4808861;29;86765;-73
2022/08/17 15:58:45;;;;;;;4.63;2.42;;;29.00;58.30;;;;;;4806413;29;86969;-73
2022/08/17 16:01:12;;;;;;;6.28;2.15;;;28.80;57.60;;;;;;4802026;29;87201;-73
2022/08/17 16:03:38;;;;;;;10.13;3.60;;;28.70;57.30;;;;;;4804445;29;87342;-73
2022/08/17 16:06:06;;;;;;;5.72;2.30;;;28.80;56.60;;;;;;4802721;29;87049;-74
2022/08/17 16:08:33;;;;;;;3.58;2.40;;;28.90;57.10;;;;;;4802902;29;86625;-74
2022/08/17 16:10:59;;;;;;;4.72;2.10;;;28.90;58.10;;;;;;4799129;29;87942;-74
2022/08/17 16:13:26;;;;;;;15.57;2.80;;;28.60;57.90;;;;;;4800874;29;87555;-74
2022/08/17 16:15:53;;;;;;;4.80;2.72;;;28.60;58.00;;;;;;4803101;29;87262;-73
2022/08/17 16:18:21;;;;;;;4.13;2.35;;;28.70;59.20;;;;;;4808650;29;87010;-73
2022/08/17 16:20:47;;;;;;;3.67;2.28;;;28.50;58.50;;;;;;4804661;29;88706;-74
2022/08/17 16:23:13;;;;;;;6.28;2.65;;;28.70;58.60;;;;;;4805543;29;87255;-74
2022/08/17 16:25:39;;;;;;;4.40;2.28;;;28.70;58.60;;;;;;4802491;29;87915;-74
2022/08/17 16:28:05;;;;;;;4.20;2.40;;;28.80;58.30;;;;;;4803997;29;86352;-74
2022/08/17 16:30:32;;;;;;;5.75;1.92;;;28.90;57.40;;;;;;4803444;29;87447;-73
2022/08/17 16:33:00;;;;;;;3.88;1.90;;;28.80;58.10;;;;;;4804954;29;86030;-76
2022/08/17 16:35:26;;;;;;;5.03;2.47;;;28.80;58.60;;;;;;4798199;29;86572;-73
2022/08/17 16:37:54;;;;;;;7.63;2.38;;;28.80;58.30;;;;;;4805961;29;86734;-73